createdAt,value
2023-08-18T00:04:48.008Z,0.03
2023-08-18T00:09:47.911Z,0.03
2023-08-18T00:14:47.381Z,0
2023-08-18T00:19:47.861Z,0.03
2023-08-18T00:24:48.178Z,0.03
2023-08-18T00:29:48.053Z,0.03
2023-08-18T00:34:46.590Z,0.03
2023-08-18T00:39:46.607Z,0.03
2023-08-18T00:44:46.214Z,0
2023-08-18T00:49:46.356Z,0
2023-08-18T00:54:46.278Z,0.03
2023-08-18T00:59:45.663Z,0.03
2023-08-18T01:04:46.007Z,0.03
2023-08-18T01:09:45.384Z,0
2023-08-18T01:14:45.396Z,0
2023-08-18T01:19:42.815Z,0.03
2023-08-18T01:24:42.215Z,0
2023-08-18T01:29:41.875Z,0.02
2023-08-18T01:34:41.981Z,0.01
2023-08-18T01:39:41.613Z,0.03
2023-08-18T01:44:41.487Z,0.02
2023-08-18T01:49:42.280Z,0.01
2023-08-18T01:54:42.002Z,0.03
2023-08-18T01:59:39.790Z,0.03
2023-08-18T02:04:40.086Z,0.03
2023-08-18T02:09:39.662Z,0.03
2023-08-18T02:14:39.218Z,0
2023-08-18T02:19:44.162Z,0.01
2023-08-18T02:24:39.326Z,0
2023-08-18T02:29:38.884Z,0.03
2023-08-18T02:34:38.828Z,0.03
2023-08-18T02:39:36.297Z,0
2023-08-18T02:44:35.558Z,0.03
2023-08-18T02:49:35.373Z,0.01
2023-08-18T02:54:35.606Z,0.03
2023-08-18T02:59:34.569Z,0.03
2023-08-18T03:04:34.616Z,0.02
2023-08-18T03:09:34.827Z,0.03
2023-08-18T03:14:34.468Z,0
2023-08-18T03:19:35.207Z,0.01
2023-08-18T03:24:31.270Z,0.01
2023-08-18T03:29:30.850Z,0.02
2023-08-18T03:34:31.092Z,0.02
2023-08-18T03:39:30.542Z,0.03
2023-08-18T03:44:30.412Z,0
2023-08-18T03:49:31.206Z,0.03
2023-08-18T03:54:30.523Z,0
2023-08-18T03:59:31.366Z,0.01
2023-08-18T04:01:34.915Z,0.01
2023-08-18T04:05:52.319Z,0.02
2023-08-18T04:10:52.363Z,0.02
2023-08-18T04:15:52.491Z,0.09
2023-08-18T04:20:52.245Z,0.18
2023-08-18T04:25:52.250Z,0.22
2023-08-18T04:30:53.090Z,0.37
2023-08-18T04:35:52.812Z,0.54
2023-08-18T04:40:51.263Z,0.71
2023-08-18T04:45:51.512Z,0.95
2023-08-18T04:50:51.205Z,1.16
2023-08-18T04:55:51.158Z,1.42
2023-08-18T05:00:12.847Z,1.72
2023-08-18T05:05:12.726Z,2.02
2023-08-18T05:10:12.375Z,2.32
2023-08-18T05:15:12.344Z,2.69
2023-08-18T05:20:15.897Z,3.07
2023-08-18T05:25:11.120Z,3.45
2023-08-18T05:30:10.844Z,3.94
2023-08-18T05:35:11.034Z,4.37
2023-08-18T05:40:10.666Z,4.85
2023-08-18T05:45:10.531Z,5.26
2023-08-18T05:50:11.044Z,5.85
2023-08-18T05:55:13.452Z,5.78
2023-08-18T06:00:01.677Z,6.17
2023-08-18T06:04:59.269Z,6.55
2023-08-18T06:09:58.649Z,7.93
2023-08-18T06:14:58.333Z,8.54
2023-08-18T06:19:58.563Z,9.15
2023-08-18T06:24:58.371Z,9.7
2023-08-18T06:29:58.386Z,10.3
2023-08-18T06:34:58.829Z,10.93
2023-08-18T06:40:03.929Z,11.53
2023-08-18T06:44:59.790Z,12.19
2023-08-18T06:49:56.041Z,12.8
2023-08-18T06:54:56.965Z,13.46
2023-08-18T06:59:56.712Z,14.08
2023-08-18T07:04:56.715Z,14.72
2023-08-18T07:09:56.388Z,15.34
2023-08-18T07:14:57.210Z,16.05
2023-08-18T07:19:57.325Z,16.76
2023-08-18T07:25:00.225Z,17.45
2023-08-18T07:29:54.494Z,18.21
2023-08-18T07:34:54.155Z,18.82
2023-08-18T07:39:54.061Z,19.51
2023-08-18T07:44:54.418Z,20.24
2023-08-18T07:49:54.328Z,20.93
2023-08-18T07:54:54.503Z,21.6
2023-08-18T08:00:15.407Z,22.29
2023-08-18T08:04:55.711Z,22.95
2023-08-18T08:09:54.179Z,23.63
2023-08-18T08:14:54.369Z,24.43
2023-08-18T08:19:54.191Z,25.11
2023-08-18T08:24:54.273Z,25.78
2023-08-18T08:29:54.154Z,26.56
2023-08-18T08:34:54.408Z,27.17
2023-08-18T08:39:54.866Z,27.85
2023-08-18T08:44:54.826Z,28.39
2023-08-18T08:50:01.843Z,28.97
2023-08-18T08:54:53.672Z,29.58
2023-08-18T08:59:53.196Z,30.1
2023-08-18T09:04:55.464Z,30.72
2023-08-18T09:09:52.927Z,31.31
2023-08-18T09:14:52.744Z,31.79
2023-08-18T09:19:57.449Z,32.29
2023-08-18T09:24:52.714Z,32.74
2023-08-18T09:29:52.636Z,33.3
2023-08-18T09:34:49.858Z,33.59
2023-08-18T09:39:54.722Z,34.21
2023-08-18T09:44:49.248Z,34.5
2023-08-18T09:49:49.547Z,34.99
2023-08-18T09:54:49.209Z,35.26
2023-08-18T09:59:47.236Z,35.68
2023-08-18T10:04:47.534Z,36.04
2023-08-18T10:09:47.804Z,36.41
2023-08-18T10:14:45.157Z,36.8
2023-08-18T10:19:44.525Z,36.93
2023-08-18T10:24:44.697Z,37.16
2023-08-18T10:29:53.281Z,37.43
2023-08-18T10:34:43.762Z,37.72
2023-08-18T10:39:43.613Z,38.01
2023-08-18T10:44:43.972Z,38.41
2023-08-18T10:49:44.148Z,38.63
2023-08-18T10:54:44.813Z,38.81
2023-08-18T10:59:40.998Z,39.05
2023-08-18T11:04:40.834Z,39.14
2023-08-18T11:09:40.697Z,39.18
2023-08-18T11:14:40.711Z,39.45
2023-08-18T11:19:40.758Z,39.36
2023-08-18T11:24:40.552Z,39.45
2023-08-18T11:29:42.209Z,39.59
2023-08-18T11:34:40.012Z,39.43
2023-08-18T11:39:38.521Z,39.25
2023-08-18T11:44:38.668Z,39.36
2023-08-18T11:49:38.453Z,38.96
2023-08-18T11:54:38.900Z,38.86
2023-08-18T11:59:38.516Z,38.63
2023-08-18T12:01:40.535Z,38
2023-08-18T12:06:14.019Z,38.41
2023-08-18T12:11:14.748Z,38.1
2023-08-18T12:16:01.348Z,38.06
2023-08-18T12:21:00.722Z,37.72
2023-08-18T12:26:00.833Z,37.11
2023-08-18T12:31:00.662Z,36.43
2023-08-18T12:36:00.428Z,36.5
2023-08-18T12:41:00.585Z,36.78
2023-08-18T12:46:00.342Z,36.44
2023-08-18T12:51:01.579Z,36.13
2023-08-18T12:55:57.586Z,35.53
2023-08-18T13:00:18.318Z,35.36
2023-08-18T13:05:18.365Z,34.82
2023-08-18T13:10:18.428Z,34.56
2023-08-18T13:15:18.137Z,34.36
2023-08-18T13:20:20.088Z,33.99
2023-08-18T13:25:17.848Z,33.56
2023-08-18T13:30:18.809Z,33.2
2023-08-18T13:35:15.387Z,32.61
2023-08-18T13:40:14.535Z,32.24
2023-08-18T13:45:14.296Z,31.73
2023-08-18T13:50:14.131Z,31.23
2023-08-18T13:55:14.400Z,30.65
2023-08-18T14:00:16.944Z,30.1
2023-08-18T14:05:17.839Z,29.38
2023-08-18T14:10:18.481Z,28.83
2023-08-18T14:15:14.571Z,28.19
2023-08-18T14:20:15.027Z,27.64
2023-08-18T14:25:14.941Z,27.13
2023-08-18T14:30:15.382Z,26.54
2023-08-18T14:35:15.523Z,25.92
2023-08-18T14:40:16.209Z,25.24
2023-08-18T14:45:14.243Z,24.56
2023-08-18T14:50:14.443Z,23.92
2023-08-18T14:55:15.065Z,23.21
2023-08-18T14:59:46.029Z,22.57
2023-08-18T15:01:49.467Z,22.39
2023-08-18T15:06:11.428Z,21.71
2023-08-18T15:11:09.997Z,21.04
2023-08-18T15:16:08.980Z,20.44
2023-08-18T15:21:08.507Z,19.71
2023-08-18T15:26:18.861Z,18.91
2023-08-18T15:31:18.831Z,18.18
2023-08-18T15:36:19.268Z,17.43
2023-08-18T15:41:19.366Z,16.77
2023-08-18T15:46:09.435Z,16.14
2023-08-18T15:51:15.044Z,15.42
2023-08-18T15:56:16.945Z,14.77
2023-08-18T16:00:37.785Z,14.13
2023-08-18T16:05:40.606Z,13.43
2023-08-18T16:10:38.551Z,12.79
2023-08-18T16:16:14.418Z,12.15
2023-08-18T16:20:36.816Z,11.55
2023-08-18T16:25:36.443Z,10.95
2023-08-18T16:30:36.401Z,10.36
2023-08-18T16:35:33.772Z,9.76
2023-08-18T16:40:33.172Z,9.02
2023-08-18T16:45:33.233Z,8.32
2023-08-18T16:50:32.460Z,7.96
2023-08-18T16:55:32.176Z,7.41
2023-08-18T17:00:13.520Z,6.92
2023-08-18T17:05:10.386Z,6.39
2023-08-18T17:10:10.167Z,5.89
2023-08-18T17:15:18.025Z,5.35
2023-08-18T17:20:18.227Z,4.87
2023-08-18T17:25:18.012Z,4.39
2023-08-18T17:30:18.497Z,3.97
2023-08-18T17:35:18.490Z,3.54
2023-08-18T17:40:19.193Z,3.15
2023-08-18T17:45:19.731Z,2.78
2023-08-18T17:50:16.504Z,2.41
2023-08-18T17:55:16.812Z,2.07
2023-08-18T17:59:49.257Z,1.74
2023-08-18T18:04:48.996Z,1.48
2023-08-18T18:09:48.765Z,1.21
2023-08-18T18:14:49.466Z,0.93
2023-08-18T18:19:50.579Z,0.74
2023-08-18T18:24:46.660Z,0.55
2023-08-18T18:29:46.584Z,0.4
2023-08-18T18:34:46.420Z,0.25
2023-08-18T18:39:46.023Z,0.23
2023-08-18T18:44:45.694Z,0.14
2023-08-18T18:49:45.852Z,0.09
2023-08-18T18:54:45.389Z,0.03
2023-08-18T18:59:46.269Z,0.02
2023-08-18T19:04:42.469Z,0.04
2023-08-18T19:09:46.800Z,0.04
2023-08-18T19:14:41.413Z,0.03
2023-08-18T19:19:41.700Z,0.04
2023-08-18T19:24:41.915Z,0.01
2023-08-18T19:29:42.099Z,0.01
2023-08-18T19:34:42.995Z,0.02
2023-08-18T19:39:46.583Z,0.02
2023-08-18T19:44:44.771Z,0.04
2023-08-18T19:49:39.801Z,0.04
2023-08-18T19:54:39.550Z,0.04
2023-08-18T19:59:39.888Z,0.04
2023-08-18T20:01:42.076Z,0.04
2023-08-18T20:06:14.075Z,0.04
2023-08-18T20:11:18.629Z,0.01
2023-08-18T20:16:12.654Z,0.03
2023-08-18T20:21:12.578Z,0.02
2023-08-18T20:26:01.529Z,0.03
2023-08-18T20:31:01.689Z,0.03
2023-08-18T20:36:01.373Z,0.01
2023-08-18T20:41:01.443Z,0
2023-08-18T20:46:01.767Z,0.03
2023-08-18T20:51:01.590Z,0.02
2023-08-18T20:56:00.001Z,0.01
2023-08-18T21:00:20.354Z,0.02
2023-08-18T21:05:20.129Z,0.01
2023-08-18T21:10:23.086Z,0.01
2023-08-18T21:15:19.587Z,0.03
2023-08-18T21:20:19.301Z,0.01
2023-08-18T21:25:19.736Z,0.03
2023-08-18T21:30:20.684Z,0.02
2023-08-18T21:35:18.348Z,0.01
2023-08-18T21:40:18.647Z,0.03
2023-08-18T21:45:18.126Z,0.01
2023-08-18T21:50:18.269Z,0
2023-08-18T21:55:17.692Z,0.03
2023-08-18T22:00:17.525Z,0
2023-08-18T22:05:17.750Z,0.03
2023-08-18T22:10:17.549Z,0.01
2023-08-18T22:15:14.681Z,0.04
2023-08-18T22:20:15.286Z,0.03
2023-08-18T22:25:14.614Z,0.03
2023-08-18T22:30:14.946Z,0.02
2023-08-18T22:35:15.158Z,0.01
2023-08-18T22:40:15.840Z,0.03
2023-08-18T22:45:19.058Z,0.03
2023-08-18T22:50:13.548Z,0.03
2023-08-18T22:55:14.021Z,0.01
2023-08-18T22:59:47.487Z,0.03
2023-08-18T23:04:47.207Z,0.01
2023-08-18T23:09:47.714Z,0.03
2023-08-18T23:14:47.591Z,0.01
2023-08-18T23:19:48.401Z,0.02
2023-08-18T23:24:44.435Z,0.03
2023-08-18T23:29:44.119Z,0.01
2023-08-18T23:34:43.944Z,0.01
2023-08-18T23:39:44.213Z,0.01
2023-08-18T23:44:43.790Z,0.03
2023-08-18T23:49:43.810Z,0.03
2023-08-18T23:54:44.146Z,0.02
2023-08-18T23:59:44.143Z,0.01
